If you wish to contribute or participate in the discussions about articles you are invited to join SKYbrary as a registered user

 Actions

Bojnord Airport

From SKYbrary Wiki

OIMN
Airport
ICAO: OIMN – IATA: BJB
Summary
Name Bojnord Airport
Region Middle East
Territory Iran IR.gif
Location Bojnord, North Khorasan
Serving Bojnord
Elevation 1,066.495 m
3,499 ft1,066.495 m
Coordinates 37° 29' 23.30" N, 57° 18' 27.78" E
Runways
Designator Length Width Surface ROPS
7/25 3225 m10,580.709 ft
45 m147.638 ft
ASP /


METAR
Observation OIMN 111000Z 36002KT 9999 FEW035 22/09 Q1015
Station Bojnourd
Date/Time 11 April 2019 10:00:00
Wind direction 360°
Wind speed 02 kts
Lowest cloud amount few clouds
Temperature 22°C
Dew point 9°C
Humidity 43%
QNH 1015 hPa
Weather condition n/a

Airport serving Bojnord (also spelt Bojnourd or Bojnurd), the capital city of North Khorasan province, Iran.

Climatology

Cold Semi-arid climate (Köppen climate classification BSk).

Maps

Terrain

Loading map...

Airport Layout

Loading map...


Accidents & Serious Incidents at or in vicinity of OIMN

None on SKYbrary